createdAt,value
2018-10-06T00:01:38.564Z,10.30
2018-10-06T00:04:12.975Z,10.30
2018-10-06T00:06:47.784Z,10.40
2018-10-06T00:09:21.791Z,10.30
2018-10-06T00:11:56.604Z,10.30
2018-10-06T00:14:30.754Z,10.30
2018-10-06T00:17:05.430Z,10.30
2018-10-06T00:19:40.025Z,10.20
2018-10-06T00:22:14.685Z,10.30
2018-10-06T00:24:49.035Z,10.20
2018-10-06T00:27:23.569Z,10.20
2018-10-06T00:29:57.904Z,10.20
2018-10-06T00:32:32.204Z,10.20
2018-10-06T00:35:06.436Z,10.30
2018-10-06T00:37:41.047Z,10.30
2018-10-06T00:40:15.396Z,10.30
2018-10-06T00:42:49.580Z,10.40
2018-10-06T00:45:23.569Z,10.20
2018-10-06T00:47:58.500Z,10.00
2018-10-06T00:50:32.916Z,10.00
2018-10-06T00:53:07.886Z,10.00
2018-10-06T00:55:42.082Z,10.10
2018-10-06T00:58:19.480Z,10.10
2018-10-06T01:00:54.306Z,10.00
2018-10-06T01:03:28.878Z,10.00
2018-10-06T01:06:04.081Z,10.00
2018-10-06T01:08:39.494Z,10.00
2018-10-06T01:11:13.315Z,10.00
2018-10-06T01:13:47.588Z,10.00
2018-10-06T01:16:21.715Z,10.10
2018-10-06T01:18:56.141Z,10.10
2018-10-06T01:21:30.866Z,10.00
2018-10-06T01:24:05.055Z,10.00
2018-10-06T01:26:39.969Z,9.90
2018-10-06T01:29:14.039Z,9.90
2018-10-06T01:31:48.100Z,9.80
2018-10-06T01:34:22.760Z,9.80
2018-10-06T01:36:56.931Z,9.70
2018-10-06T01:39:31.358Z,9.70
2018-10-06T01:42:05.701Z,9.70
2018-10-06T01:44:40.445Z,9.70
2018-10-06T01:47:15.516Z,9.70
2018-10-06T01:49:49.673Z,9.70
2018-10-06T01:52:24.811Z,9.70
2018-10-06T01:54:58.958Z,9.60
2018-10-06T01:57:33.630Z,9.60
2018-10-06T02:00:07.913Z,9.60
2018-10-06T02:02:42.126Z,9.60
2018-10-06T02:05:16.234Z,9.60
2018-10-06T02:07:50.365Z,9.60
2018-10-06T02:10:24.730Z,9.70
2018-10-06T02:12:58.874Z,9.70
2018-10-06T02:15:32.906Z,9.70
2018-10-06T02:18:07.424Z,9.70
2018-10-06T02:20:41.953Z,9.70
2018-10-06T02:23:15.760Z,9.70
2018-10-06T02:25:50.020Z,9.80
2018-10-06T02:28:24.416Z,9.80
2018-10-06T02:30:58.377Z,9.80
2018-10-06T02:33:32.320Z,9.80
2018-10-06T02:36:06.824Z,9.80
2018-10-06T02:38:41.328Z,9.80
2018-10-06T02:41:15.656Z,9.90
2018-10-06T02:43:49.629Z,9.80
2018-10-06T02:46:24.349Z,9.80
2018-10-06T02:48:58.401Z,9.80
2018-10-06T02:51:32.534Z,9.80
2018-10-06T02:54:06.988Z,9.70
2018-10-06T02:56:42.313Z,9.70
2018-10-06T02:59:16.179Z,9.70
2018-10-06T03:01:50.631Z,9.60
2018-10-06T03:04:24.995Z,9.70
2018-10-06T03:06:58.983Z,9.70
2018-10-06T03:09:33.159Z,9.70
2018-10-06T03:12:07.147Z,9.70
2018-10-06T03:14:41.659Z,9.60
2018-10-06T03:17:16.439Z,9.60
2018-10-06T03:19:50.809Z,9.60
2018-10-06T03:22:25.357Z,9.60
2018-10-06T03:24:59.335Z,9.60
2018-10-06T03:27:33.484Z,9.60
2018-10-06T03:30:07.579Z,9.60
2018-10-06T03:32:41.806Z,9.60
2018-10-06T03:35:15.795Z,9.60
2018-10-06T03:37:49.926Z,9.60
2018-10-06T03:40:24.144Z,9.60
2018-10-06T03:42:58.440Z,9.60
2018-10-06T03:45:33.831Z,9.50
2018-10-06T03:48:08.611Z,9.50
2018-10-06T03:50:42.970Z,9.60
2018-10-06T03:53:16.763Z,9.60
2018-10-06T03:55:51.186Z,9.60
2018-10-06T03:58:25.667Z,9.60
2018-10-06T04:00:59.825Z,9.50
2018-10-06T04:03:33.738Z,9.50
2018-10-06T04:06:08.598Z,9.50
2018-10-06T04:08:42.643Z,9.50
2018-10-06T04:11:16.803Z,9.60
2018-10-06T04:13:50.948Z,9.60
2018-10-06T04:16:24.983Z,9.60
2018-10-06T04:18:59.443Z,9.60
2018-10-06T04:21:44.120Z,9.60
2018-10-06T04:24:18.928Z,9.60
2018-10-06T04:26:53.188Z,9.50
2018-10-06T04:29:27.393Z,9.40
2018-10-06T04:32:01.785Z,9.40
2018-10-06T04:34:36.354Z,9.40
2018-10-06T04:37:10.509Z,9.40
2018-10-06T04:39:44.785Z,9.40
2018-10-06T04:42:19.350Z,9.40
2018-10-06T04:44:54.404Z,9.40
2018-10-06T04:47:28.844Z,9.40
2018-10-06T04:50:03.278Z,9.40
2018-10-06T04:52:37.329Z,9.50
2018-10-06T04:55:11.419Z,9.50
2018-10-06T04:57:45.734Z,9.50
2018-10-06T05:00:19.908Z,9.50
2018-10-06T05:02:54.333Z,9.50
2018-10-06T05:05:28.425Z,9.50
2018-10-06T05:08:02.679Z,9.40
2018-10-06T05:10:36.923Z,9.40
2018-10-06T05:13:11.138Z,9.40
2018-10-06T05:15:45.270Z,9.40
2018-10-06T05:18:19.523Z,9.40
2018-10-06T05:20:53.706Z,9.30
2018-10-06T05:23:28.025Z,9.40
2018-10-06T05:26:02.901Z,9.40
2018-10-06T05:28:37.920Z,9.40
2018-10-06T05:31:12.023Z,9.40
2018-10-06T05:33:46.159Z,9.40
2018-10-06T05:36:20.234Z,9.40
2018-10-06T05:38:54.978Z,9.30
2018-10-06T05:41:28.773Z,9.30
2018-10-06T05:44:03.018Z,9.20
2018-10-06T05:46:37.575Z,9.20
2018-10-06T05:49:12.553Z,9.10
2018-10-06T05:51:46.550Z,9.00
2018-10-06T05:54:21.020Z,9.10
2018-10-06T05:56:55.109Z,9.20
2018-10-06T05:59:29.358Z,9.30
2018-10-06T06:02:03.449Z,9.30
2018-10-06T06:04:38.883Z,9.40
2018-10-06T06:07:12.919Z,9.40
2018-10-06T06:09:47.782Z,9.50
2018-10-06T06:12:22.488Z,9.50
2018-10-06T06:14:58.163Z,9.60
2018-10-06T06:17:32.260Z,9.60
2018-10-06T06:20:06.419Z,9.70
2018-10-06T06:22:40.970Z,9.70
2018-10-06T06:25:15.025Z,9.80
2018-10-06T06:27:49.028Z,9.90
2018-10-06T06:30:23.433Z,9.90
2018-10-06T06:32:57.867Z,10.00
2018-10-06T06:35:32.783Z,10.10
2018-10-06T06:38:07.676Z,10.20
2018-10-06T06:40:45.423Z,10.30
2018-10-06T06:43:20.477Z,10.40
2018-10-06T06:45:54.556Z,10.40
2018-10-06T06:48:29.210Z,10.50
2018-10-06T06:51:03.415Z,10.50
2018-10-06T06:53:38.159Z,10.60
2018-10-06T06:56:12.683Z,10.60
2018-10-06T06:58:46.682Z,10.70
2018-10-06T07:01:20.739Z,10.70
2018-10-06T07:03:55.593Z,10.80
2018-10-06T07:06:29.773Z,10.80
2018-10-06T07:09:04.764Z,10.90
2018-10-06T07:11:38.804Z,11.00
2018-10-06T07:14:12.976Z,11.10
2018-10-06T07:16:46.963Z,11.20
2018-10-06T07:19:22.024Z,11.30
2018-10-06T07:21:56.190Z,11.40
2018-10-06T07:24:30.658Z,11.50
2018-10-06T07:27:05.570Z,11.70
2018-10-06T07:29:39.517Z,11.90
2018-10-06T07:32:13.891Z,12.00
2018-10-06T07:34:53.222Z,12.20
2018-10-06T07:37:27.285Z,12.40
2018-10-06T07:40:01.346Z,12.50
2018-10-06T07:42:35.475Z,12.70
2018-10-06T07:45:09.629Z,12.90
2018-10-06T07:47:43.880Z,13.00
2018-10-06T07:50:19.180Z,13.20
2018-10-06T07:52:53.452Z,13.30
2018-10-06T07:55:27.899Z,13.50
2018-10-06T07:58:03.324Z,13.70
2018-10-06T08:00:38.050Z,13.80
2018-10-06T08:03:12.160Z,14.00
2018-10-06T08:05:46.548Z,14.20
2018-10-06T08:08:21.118Z,14.50
2018-10-06T08:10:55.965Z,14.60
2018-10-06T08:13:30.483Z,14.80
2018-10-06T08:16:05.580Z,15.10
2018-10-06T08:18:39.836Z,15.20
2018-10-06T08:21:14.089Z,15.40
2018-10-06T08:23:48.416Z,15.50
2018-10-06T08:26:22.722Z,15.70
2018-10-06T08:28:57.035Z,15.90
2018-10-06T08:31:31.514Z,16.20
2018-10-06T08:34:05.768Z,16.40
2018-10-06T08:36:40.708Z,16.60
2018-10-06T08:39:14.764Z,16.70
2018-10-06T08:41:49.247Z,16.90
2018-10-06T08:44:23.623Z,17.00
2018-10-06T08:46:57.649Z,17.20
2018-10-06T08:49:32.449Z,17.40
2018-10-06T08:52:07.077Z,17.60
2018-10-06T08:54:41.268Z,17.70
2018-10-06T08:57:16.083Z,17.90
2018-10-06T08:59:50.549Z,18.00
2018-10-06T09:02:26.295Z,18.20
2018-10-06T09:05:00.568Z,18.30
2018-10-06T09:07:34.853Z,18.50
2018-10-06T09:10:09.851Z,18.60
2018-10-06T09:12:43.948Z,18.70
2018-10-06T09:15:17.931Z,18.90
2018-10-06T09:17:52.596Z,19.10
2018-10-06T09:20:27.309Z,19.20
2018-10-06T09:23:02.389Z,19.30
2018-10-06T09:25:37.242Z,19.30
2018-10-06T09:28:11.547Z,19.30
2018-10-06T09:30:46.112Z,19.40
2018-10-06T09:33:20.424Z,19.40
2018-10-06T09:35:54.809Z,19.50
2018-10-06T09:38:29.794Z,19.50
2018-10-06T09:41:04.952Z,19.60
2018-10-06T09:43:39.878Z,19.50
2018-10-06T09:46:14.340Z,19.50
2018-10-06T09:48:49.169Z,19.50
2018-10-06T09:51:23.214Z,19.50
2018-10-06T09:53:57.394Z,19.50
2018-10-06T09:56:32.270Z,19.50
2018-10-06T09:59:07.694Z,19.60
2018-10-06T10:01:47.283Z,19.60
2018-10-06T10:04:21.487Z,19.60
2018-10-06T10:06:55.974Z,19.70
2018-10-06T10:09:30.378Z,19.80
2018-10-06T10:12:05.376Z,19.90
2018-10-06T10:14:39.507Z,20.10
2018-10-06T10:17:14.086Z,20.20
2018-10-06T10:19:48.393Z,20.30
2018-10-06T10:22:22.598Z,20.30
2018-10-06T10:24:56.894Z,20.40
2018-10-06T10:27:31.898Z,20.50
2018-10-06T10:30:07.475Z,20.60
2018-10-06T10:32:41.688Z,20.70
2018-10-06T10:35:15.818Z,20.80
2018-10-06T10:37:49.861Z,20.90
2018-10-06T10:40:24.354Z,21.00
2018-10-06T10:42:58.589Z,21.00
2018-10-06T10:45:33.869Z,21.10
2018-10-06T10:48:08.404Z,21.20
2018-10-06T10:50:42.800Z,21.40
2018-10-06T10:53:17.336Z,21.60
2018-10-06T10:55:51.346Z,21.70
2018-10-06T10:58:26.425Z,21.80
2018-10-06T11:01:00.990Z,21.90
2018-10-06T11:03:35.508Z,21.90
2018-10-06T11:06:10.448Z,22.00
2018-10-06T11:08:44.617Z,22.10
2018-10-06T11:11:18.898Z,22.20
2018-10-06T11:13:53.149Z,22.30
2018-10-06T11:16:27.295Z,22.40
2018-10-06T11:19:01.625Z,22.50
2018-10-06T11:21:36.183Z,22.60
2018-10-06T11:24:10.345Z,22.80
2018-10-06T11:26:44.855Z,22.80
2018-10-06T11:29:18.737Z,22.90
2018-10-06T11:31:52.865Z,23.00
2018-10-06T11:34:27.732Z,23.00
2018-10-06T11:37:02.097Z,23.20
2018-10-06T11:39:36.452Z,23.30
2018-10-06T11:42:11.510Z,23.30
2018-10-06T11:44:46.667Z,23.40
2018-10-06T11:47:21.738Z,23.60
2018-10-06T11:49:56.083Z,23.50
2018-10-06T11:52:30.278Z,23.60
2018-10-06T11:55:04.894Z,23.70
2018-10-06T11:57:39.269Z,23.80
2018-10-06T12:00:13.561Z,23.90
2018-10-06T12:02:47.863Z,24.00
2018-10-06T12:05:21.708Z,24.00
2018-10-06T12:07:55.805Z,24.10
2018-10-06T12:10:30.144Z,24.20
2018-10-06T12:13:04.319Z,24.40
2018-10-06T12:15:38.806Z,24.40
2018-10-06T12:18:13.156Z,24.50
2018-10-06T12:20:48.118Z,24.60
2018-10-06T12:23:25.668Z,24.70
2018-10-06T12:26:00.033Z,24.80
2018-10-06T12:28:34.435Z,24.80
2018-10-06T12:31:09.485Z,24.80
2018-10-06T12:33:43.614Z,24.80
2018-10-06T12:36:18.289Z,25.00
2018-10-06T12:38:53.179Z,25.10
2018-10-06T12:41:27.299Z,25.40
2018-10-06T12:44:01.358Z,25.50
2018-10-06T12:46:35.655Z,25.50
2018-10-06T12:49:10.172Z,25.50
2018-10-06T12:51:44.838Z,25.40
2018-10-06T12:54:19.368Z,25.50
2018-10-06T12:56:53.682Z,25.50
2018-10-06T12:59:28.082Z,25.70
2018-10-06T13:02:02.203Z,25.70
2018-10-06T13:04:37.578Z,25.70
2018-10-06T13:07:12.190Z,25.90
2018-10-06T13:09:46.810Z,26.00
2018-10-06T13:12:21.014Z,26.30
2018-10-06T13:14:55.344Z,26.40
2018-10-06T13:17:29.640Z,26.60
2018-10-06T13:20:04.773Z,26.70
2018-10-06T13:22:38.925Z,26.50
2018-10-06T13:25:13.539Z,26.60
2018-10-06T13:27:47.620Z,26.60
2018-10-06T13:30:22.214Z,26.80
2018-10-06T13:32:56.750Z,27.10
2018-10-06T13:35:30.760Z,27.20
2018-10-06T13:38:05.663Z,27.40
2018-10-06T13:40:39.974Z,27.50
2018-10-06T13:43:14.368Z,27.40
2018-10-06T13:45:48.352Z,27.40
2018-10-06T13:48:22.588Z,27.20
2018-10-06T13:50:56.936Z,27.10
2018-10-06T13:53:31.043Z,27.00
2018-10-06T13:56:05.467Z,27.00
2018-10-06T13:58:40.590Z,26.90
2018-10-06T14:01:15.541Z,27.00
2018-10-06T14:03:49.884Z,27.10
2018-10-06T14:06:24.120Z,27.10
2018-10-06T14:08:58.578Z,26.80
2018-10-06T14:11:34.158Z,26.80
2018-10-06T14:14:08.817Z,26.90
2018-10-06T14:16:42.857Z,26.90
2018-10-06T14:19:19.154Z,27.00
2018-10-06T14:21:54.329Z,27.00
2018-10-06T14:24:28.574Z,26.80
2018-10-06T14:27:02.962Z,26.70
2018-10-06T14:29:37.955Z,26.40
2018-10-06T14:32:12.543Z,26.20
2018-10-06T14:34:46.846Z,25.90
2018-10-06T14:37:21.305Z,25.70
2018-10-06T14:39:55.608Z,25.50
2018-10-06T14:42:29.695Z,25.20
2018-10-06T14:45:04.097Z,25.10
2018-10-06T14:47:39.195Z,25.00
2018-10-06T14:50:13.329Z,24.80
2018-10-06T14:52:47.374Z,24.70
2018-10-06T14:55:22.193Z,24.70
2018-10-06T14:57:57.254Z,24.60
2018-10-06T15:00:31.911Z,24.60
2018-10-06T15:03:06.492Z,24.60
2018-10-06T15:05:41.178Z,24.60
2018-10-06T15:08:15.691Z,24.60
2018-10-06T15:10:49.925Z,24.60
2018-10-06T15:13:24.730Z,24.60
2018-10-06T15:16:00.221Z,24.60
2018-10-06T15:18:34.263Z,24.50
2018-10-06T15:21:08.394Z,24.40
2018-10-06T15:23:42.438Z,24.20
2018-10-06T15:26:17.006Z,24.10
2018-10-06T15:28:51.849Z,23.90
2018-10-06T15:31:26.072Z,23.80
2018-10-06T15:34:00.019Z,23.70
2018-10-06T15:36:34.227Z,23.60
2018-10-06T15:39:08.898Z,23.50
2018-10-06T15:41:43.316Z,23.50
2018-10-06T15:44:17.192Z,23.50
2018-10-06T15:46:51.382Z,23.40
2018-10-06T15:49:26.007Z,23.30
2018-10-06T15:52:00.110Z,23.10
2018-10-06T15:54:34.249Z,22.90
2018-10-06T15:57:08.719Z,22.80
2018-10-06T15:59:43.675Z,22.60
2018-10-06T16:02:18.075Z,22.40
2018-10-06T16:04:52.275Z,22.30
2018-10-06T16:07:26.584Z,22.10
2018-10-06T16:10:00.866Z,22.00
2018-10-06T16:12:35.492Z,21.80
2018-10-06T16:15:10.370Z,21.60
2018-10-06T16:17:44.433Z,21.50
2018-10-06T16:20:19.048Z,21.30
2018-10-06T16:22:52.972Z,21.20
2018-10-06T16:25:27.542Z,21.10
2018-10-06T16:28:01.864Z,20.90
2018-10-06T16:30:36.073Z,20.80
2018-10-06T16:33:10.878Z,20.70
2018-10-06T16:35:45.397Z,20.60
2018-10-06T16:38:19.713Z,20.40
2018-10-06T16:40:54.615Z,20.30
2018-10-06T16:43:28.913Z,20.20
2018-10-06T16:46:03.328Z,20.10
2018-10-06T16:48:37.509Z,19.90
2018-10-06T16:51:11.695Z,19.80
2018-10-06T16:53:45.931Z,19.60
2018-10-06T16:56:20.784Z,19.50
2018-10-06T16:58:55.147Z,19.30
2018-10-06T17:01:29.430Z,19.20
2018-10-06T17:04:03.734Z,19.10
2018-10-06T17:06:37.880Z,19.00
2018-10-06T17:09:12.135Z,18.90
2018-10-06T17:11:47.135Z,18.80
2018-10-06T17:14:22.639Z,18.70
2018-10-06T17:16:56.723Z,18.70
2018-10-06T17:19:31.439Z,18.60
2018-10-06T17:22:06.372Z,18.50
2018-10-06T17:24:40.712Z,18.40
2018-10-06T17:27:15.010Z,18.40
2018-10-06T17:29:49.143Z,18.30
2018-10-06T17:32:23.552Z,18.30
2018-10-06T17:34:58.169Z,18.20
2018-10-06T17:37:32.364Z,18.20
2018-10-06T17:40:07.639Z,18.10
2018-10-06T17:42:42.038Z,18.10
2018-10-06T17:45:16.305Z,18.10
2018-10-06T17:47:50.239Z,18.10
2018-10-06T17:50:24.548Z,18.00
2018-10-06T17:52:58.653Z,18.00
2018-10-06T17:55:33.777Z,17.90
2018-10-06T17:58:07.931Z,17.90
2018-10-06T18:00:42.499Z,17.90
2018-10-06T18:03:17.534Z,17.90
2018-10-06T18:05:51.484Z,17.80
2018-10-06T18:08:26.025Z,17.80
2018-10-06T18:11:00.279Z,17.70
2018-10-06T18:13:34.675Z,17.70
2018-10-06T18:16:09.008Z,17.60
2018-10-06T18:18:44.327Z,17.60
2018-10-06T18:21:18.802Z,17.50
2018-10-06T18:23:52.866Z,17.40
2018-10-06T18:26:27.173Z,17.40
2018-10-06T18:29:01.282Z,17.40
2018-10-06T18:31:35.249Z,17.30
2018-10-06T18:34:10.386Z,17.30
2018-10-06T18:36:44.839Z,17.20
2018-10-06T18:39:19.464Z,17.10
2018-10-06T18:41:54.384Z,17.10
2018-10-06T18:44:28.533Z,17.00
2018-10-06T18:47:02.834Z,17.00
2018-10-06T18:49:37.484Z,17.00
2018-10-06T18:52:11.828Z,17.00
2018-10-06T18:54:46.329Z,17.00
2018-10-06T18:57:20.797Z,17.00
2018-10-06T18:59:55.602Z,17.00
2018-10-06T19:02:30.713Z,17.00
2018-10-06T19:05:05.771Z,17.00
2018-10-06T19:07:39.872Z,17.00
2018-10-06T19:10:14.069Z,17.00
2018-10-06T19:12:48.231Z,17.10
2018-10-06T19:15:22.511Z,17.10
2018-10-06T19:17:56.922Z,17.10
2018-10-06T19:20:31.989Z,17.10
2018-10-06T19:23:09.073Z,17.10
2018-10-06T19:25:43.640Z,17.10
2018-10-06T19:28:17.850Z,17.10
2018-10-06T19:30:52.275Z,17.10
2018-10-06T19:33:26.838Z,17.10
2018-10-06T19:36:01.213Z,17.10
2018-10-06T19:38:35.051Z,17.00
2018-10-06T19:41:09.565Z,17.00
2018-10-06T19:43:44.092Z,16.90
2018-10-06T19:46:18.185Z,16.80
2018-10-06T19:48:52.615Z,16.80
2018-10-06T19:51:27.695Z,16.80
2018-10-06T19:54:02.697Z,16.70
2018-10-06T19:56:36.853Z,16.60
2018-10-06T19:59:11.903Z,16.50
2018-10-06T20:01:46.347Z,16.50
2018-10-06T20:04:20.808Z,16.50
2018-10-06T20:06:55.822Z,16.40
2018-10-06T20:09:30.012Z,16.30
2018-10-06T20:12:04.325Z,16.20
2018-10-06T20:14:39.155Z,16.10
2018-10-06T20:17:13.201Z,16.10
2018-10-06T20:19:47.657Z,16.10
2018-10-06T20:22:21.793Z,16.00
2018-10-06T20:24:55.887Z,15.90
2018-10-06T20:27:30.217Z,15.90
2018-10-06T20:30:04.909Z,15.80
2018-10-06T20:32:39.128Z,15.70
2018-10-06T20:35:13.540Z,15.70
2018-10-06T20:37:47.608Z,15.70
2018-10-06T20:40:21.835Z,15.70
2018-10-06T20:42:55.960Z,15.50
2018-10-06T20:45:30.857Z,15.40
2018-10-06T20:48:05.032Z,15.40
2018-10-06T20:50:39.364Z,15.30
2018-10-06T20:53:13.798Z,15.30
2018-10-06T20:55:47.963Z,15.30
2018-10-06T20:58:22.130Z,15.20
2018-10-06T21:00:56.083Z,15.20
2018-10-06T21:03:31.409Z,15.10
2018-10-06T21:06:05.682Z,15.10
2018-10-06T21:08:39.572Z,15.00
2018-10-06T21:11:14.449Z,15.00
2018-10-06T21:13:49.052Z,15.10
2018-10-06T21:16:23.432Z,15.10
2018-10-06T21:18:57.781Z,15.10
2018-10-06T21:21:32.538Z,15.10
2018-10-06T21:24:06.703Z,15.10
2018-10-06T21:26:40.782Z,15.00
2018-10-06T21:29:15.683Z,15.00
2018-10-06T21:31:50.208Z,15.00
2018-10-06T21:34:24.327Z,14.90
2018-10-06T21:36:58.498Z,14.80
2018-10-06T21:39:32.669Z,14.70
2018-10-06T21:42:06.757Z,14.70
2018-10-06T21:44:41.641Z,14.70
2018-10-06T21:47:16.480Z,14.70
2018-10-06T21:49:51.025Z,14.70
2018-10-06T21:52:25.179Z,14.70
2018-10-06T21:55:00.653Z,14.70
2018-10-06T21:57:34.811Z,14.60
2018-10-06T22:00:12.071Z,14.60
2018-10-06T22:02:46.240Z,14.60
2018-10-06T22:05:20.401Z,14.50
2018-10-06T22:07:54.698Z,14.50
2018-10-06T22:10:29.821Z,14.50
2018-10-06T22:13:04.224Z,14.40
2018-10-06T22:15:38.648Z,14.30
2018-10-06T22:18:12.951Z,14.20
2018-10-06T22:20:46.898Z,14.20
2018-10-06T22:23:21.664Z,14.20
2018-10-06T22:25:55.743Z,14.20
2018-10-06T22:28:29.851Z,14.20
2018-10-06T22:31:04.274Z,14.20
2018-10-06T22:33:38.859Z,14.20
2018-10-06T22:36:12.912Z,14.10
2018-10-06T22:38:47.175Z,14.10
2018-10-06T22:41:21.932Z,14.10
2018-10-06T22:43:56.168Z,14.00
2018-10-06T22:46:30.311Z,14.00
2018-10-06T22:49:04.596Z,13.90
2018-10-06T22:51:39.519Z,13.90
2018-10-06T22:54:14.081Z,13.90
2018-10-06T22:56:48.463Z,13.80
2018-10-06T22:59:22.881Z,13.60
2018-10-06T23:01:57.284Z,13.60
2018-10-06T23:04:31.557Z,13.60
2018-10-06T23:07:06.585Z,13.60
2018-10-06T23:09:41.152Z,13.60
2018-10-06T23:12:15.759Z,13.70
2018-10-06T23:14:49.972Z,13.70
2018-10-06T23:17:24.169Z,13.60
2018-10-06T23:19:58.947Z,13.60
2018-10-06T23:22:33.477Z,13.50
2018-10-06T23:25:07.935Z,13.50
2018-10-06T23:27:42.339Z,13.50
2018-10-06T23:30:16.712Z,13.40
2018-10-06T23:32:51.525Z,13.30
2018-10-06T23:35:25.946Z,13.10
2018-10-06T23:38:00.229Z,13.10
2018-10-06T23:40:35.376Z,13.10
2018-10-06T23:43:09.492Z,13.10
2018-10-06T23:45:44.230Z,13.00
2018-10-06T23:48:18.171Z,13.00
2018-10-06T23:50:52.252Z,12.90
2018-10-06T23:53:26.878Z,12.90
2018-10-06T23:56:01.757Z,12.90
2018-10-06T23:58:39.178Z,13.00
